Time;durP1;ratioP1;P1;durP2;ratioP2;P2;SDS_P1;SDS_P2;PMS_P1;PMS_P2;Temp;Humidity;BMP_temperature;BMP_pressure;BME280_temperature;BME280_humidity;BME280_pressure;Samples;Min_cycle;Max_cycle;Signal;HPM_P1;HPM_P2
2021/08/13 00:01:56;;;;;;;;;;;18.50;99.90;;;;;;5090725;28;19908;-77
2021/08/13 00:04:22;;;;;;;;;;;18.50;99.90;;;;;;5108979;28;19951;-77
2021/08/13 00:06:50;;;;;;;;;;;18.50;99.90;;;;;;5108681;28;19962;-77
2021/08/13 00:09:16;;;;;;;;;;;18.50;99.90;;;;;;5108839;28;19908;-77
2021/08/13 00:11:41;;;;;;;;;;;18.40;99.90;;;;;;5108935;28;20022;-77
2021/08/13 00:14:07;;;;;;;;;;;18.30;99.90;;;;;;5108831;28;19908;-77
2021/08/13 00:16:33;;;;;;;;;;;18.20;99.90;;;;;;5108540;28;19919;-77
2021/08/13 00:19:00;;;;;;;;;;;18.20;99.90;;;;;;5107525;28;19933;-77
2021/08/13 00:21:26;;;;;;;;;;;18.10;99.90;;;;;;5108650;28;19908;-77
2021/08/13 00:23:51;;;;;;;;;;;18.20;99.90;;;;;;5108493;28;19908;-77
2021/08/13 00:26:17;;;;;;;;;;;18.10;99.90;;;;;;5108266;28;20021;-77
2021/08/13 00:28:42;;;;;;;;;;;18.10;99.90;;;;;;5108599;28;19908;-77
2021/08/13 00:31:08;;;;;;;;;;;18.10;99.90;;;;;;5089716;28;19909;-77
2021/08/13 00:33:33;;;;;;;;;;;18.10;99.90;;;;;;5088023;28;20364;-77
2021/08/13 00:35:59;;;;;;;;;;;18.00;99.90;;;;;;5088141;28;20400;-77
2021/08/13 00:38:24;;;;;;;;;;;18.00;99.90;;;;;;5087528;28;19915;-77
2021/08/13 00:40:49;;;;;;;;;;;18.00;99.90;;;;;;5086655;28;20353;-77
2021/08/13 00:43:15;;;;;;;;;;;17.90;99.90;;;;;;5088068;28;19944;-77
2021/08/13 00:45:40;;;;;;;;;;;17.90;99.90;;;;;;5094559;28;20284;-77
2021/08/13 00:48:06;;;;;;;;;;;17.80;99.90;;;;;;5107883;28;19916;-77
2021/08/13 00:50:32;;;;;;;;;;;17.80;99.90;;;;;;5108057;28;19914;-77
2021/08/13 00:52:58;;;;;;;;;;;17.80;99.90;;;;;;5107954;28;19915;-77
2021/08/13 00:55:24;;;;;;;;;;;17.70;99.90;;;;;;5108152;28;20247;-77
2021/08/13 00:57:49;;;;;;;;;;;17.70;99.90;;;;;;5099206;28;19908;-77
2021/08/13 01:00:15;;;;;;;;;;;17.70;99.90;;;;;;5090405;28;19909;-77
2021/08/13 01:02:40;;;;;;;;;;;17.70;99.90;;;;;;5090737;28;19931;-77
2021/08/13 01:05:06;;;;;;;;;;;17.70;99.90;;;;;;5094339;28;19908;-77
2021/08/13 01:07:31;;;;;;;;;;;17.70;99.90;;;;;;5092365;28;20007;-77
2021/08/13 01:09:57;;;;;;;;;;;17.80;99.90;;;;;;5094125;28;19977;-77
2021/08/13 01:12:32;;;;;;;;;;;17.80;99.90;;;;;;5094208;28;19908;-77
2021/08/13 01:15:05;;;;;;;;;;;17.80;99.90;;;;;;5092928;28;19908;-77
2021/08/13 01:17:34;;;;;;;;;;;17.70;99.90;;;;;;5093741;28;19992;-77
2021/08/13 01:20:15;;;;;;;;;;;17.70;99.90;;;;;;5089337;28;20269;-77
2021/08/13 01:22:55;;;;;;;;;;;17.70;99.90;;;;;;5093838;28;20404;-77
2021/08/13 01:25:22;;;;;;;;;;;17.70;99.90;;;;;;5094233;28;19973;-77
2021/08/13 01:27:50;;;;;;;;;;;17.60;99.90;;;;;;5094093;28;19912;-77
2021/08/13 01:30:17;;;;;;;;;;;17.60;99.90;;;;;;5091982;28;20387;-77
2021/08/13 01:32:45;;;;;;;;;;;17.60;99.90;;;;;;5090251;28;19915;-76
2021/08/13 01:35:11;;;;;;;;;;;17.60;99.90;;;;;;5093808;28;20364;-77
2021/08/13 01:37:38;;;;;;;;;;;17.60;99.90;;;;;;5093286;28;20105;-77
2021/08/13 01:40:04;;;;;;;;;;;17.60;99.90;;;;;;5093592;28;20310;-77
2021/08/13 01:42:31;;;;;;;;;;;17.60;99.90;;;;;;5092297;28;19934;-77
2021/08/13 01:44:57;;;;;;;;;;;17.60;99.90;;;;;;5093417;28;19908;-77
2021/08/13 01:47:23;;;;;;;;;;;17.60;99.90;;;;;;5090580;28;20388;-77
2021/08/13 01:49:50;;;;;;;;;;;17.60;99.90;;;;;;5093259;28;19952;-77
2021/08/13 01:52:16;;;;;;;;;;;17.60;99.90;;;;;;5091775;28;20292;-77
2021/08/13 01:54:41;;;;;;;;;;;17.50;99.90;;;;;;5093168;28;19923;-77
2021/08/13 01:57:07;;;;;;;;;;;17.50;99.90;;;;;;5092774;28;19908;-76
2021/08/13 01:59:33;;;;;;;;;;;17.50;99.90;;;;;;5092970;28;19908;-77
2021/08/13 02:01:59;;;;;;;;;;;17.60;99.90;;;;;;5089624;28;19908;-77
2021/08/13 02:04:25;;;;;;;;;;;17.50;99.90;;;;;;5092926;28;20386;-77
2021/08/13 02:06:51;;;;;;;;;;;17.60;99.90;;;;;;5092016;28;20372;-77
2021/08/13 02:09:17;;;;;;;;;;;17.60;99.90;;;;;;5092196;28;19908;-77
2021/08/13 02:11:43;;;;;;;;;;;17.60;99.90;;;;;;5092462;28;20288;-77
2021/08/13 02:14:09;;;;;;;;;;;17.60;99.90;;;;;;5093126;28;19914;-77
2021/08/13 02:16:35;;;;;;;;;;;17.70;99.90;;;;;;5090839;28;20364;-77
2021/08/13 02:19:06;;;;;;;;;;;17.70;99.90;;;;;;5091712;28;19914;-77
2021/08/13 02:21:33;;;;;;;;;;;17.70;99.90;;;;;;5092554;28;19915;-77
2021/08/13 02:23:58;;;;;;;;;;;17.70;99.90;;;;;;5092588;28;19950;-77
2021/08/13 02:26:24;;;;;;;;;;;17.60;99.90;;;;;;5092065;28;19951;-77
2021/08/13 02:28:49;;;;;;;;;;;17.60;99.90;;;;;;5092363;28;19912;-77
2021/08/13 02:31:15;;;;;;;;;;;17.60;99.90;;;;;;5089304;28;19912;-77
2021/08/13 02:33:40;;;;;;;;;;;17.50;99.90;;;;;;5092243;28;20028;-77
2021/08/13 02:36:09;;;;;;;;;;;17.50;99.90;;;;;;5092068;28;19969;-77
2021/08/13 02:38:42;;;;;;;;;;;17.50;99.90;;;;;;5092327;28;19908;-77
2021/08/13 02:41:08;;;;;;;;;;;17.50;99.90;;;;;;5092224;28;19908;-77
2021/08/13 02:43:35;;;;;;;;;;;17.60;99.90;;;;;;5092021;28;19957;-77
2021/08/13 02:46:02;;;;;;;;;;;17.60;99.90;;;;;;5090440;28;19924;-78
2021/08/13 02:48:29;;;;;;;;;;;17.60;99.90;;;;;;5092280;28;19947;-77
2021/08/13 02:50:55;;;;;;;;;;;17.60;99.90;;;;;;5091861;28;20053;-77
2021/08/13 02:53:22;;;;;;;;;;;17.60;99.90;;;;;;5092109;28;20442;-77
2021/08/13 02:55:50;;;;;;;;;;;17.50;99.90;;;;;;5090555;28;19908;-77
2021/08/13 02:58:17;;;;;;;;;;;17.50;99.90;;;;;;5091610;28;20384;-77
2021/08/13 03:00:43;;;;;;;;;;;17.50;99.90;;;;;;5088693;28;19913;-77
2021/08/13 03:03:10;;;;;;;;;;;17.40;99.90;;;;;;5091705;28;19908;-77
2021/08/13 03:05:39;;;;;;;;;;;17.40;99.90;;;;;;5091844;28;19953;-77
2021/08/13 03:08:05;;;;;;;;;;;17.40;99.90;;;;;;5091478;28;19943;-77
2021/08/13 03:10:31;;;;;;;;;;;17.40;99.90;;;;;;5091677;28;19915;-77
2021/08/13 03:12:57;;;;;;;;;;;17.40;99.90;;;;;;5091821;28;19908;-77
2021/08/13 03:15:23;;;;;;;;;;;17.30;99.90;;;;;;5091715;28;20000;-77
2021/08/13 03:17:49;;;;;;;;;;;17.30;99.90;;;;;;5090156;28;19943;-77
2021/08/13 03:20:14;;;;;;;;;;;17.30;99.90;;;;;;5091263;28;19909;-77
2021/08/13 03:22:40;;;;;;;;;;;17.30;99.90;;;;;;5091491;28;19908;-77
2021/08/13 03:25:06;;;;;;;;;;;17.30;99.90;;;;;;5091263;28;20392;-77
2021/08/13 03:27:32;;;;;;;;;;;17.30;99.90;;;;;;5091201;28;20338;-77
2021/08/13 03:29:58;;;;;;;;;;;17.30;99.90;;;;;;5091365;28;20006;-77
2021/08/13 03:32:24;;;;;;;;;;;17.30;99.90;;;;;;5088330;28;20288;-77
2021/08/13 03:34:49;;;;;;;;;;;17.20;99.90;;;;;;5091220;28;19953;-77
2021/08/13 03:37:15;;;;;;;;;;;17.20;99.90;;;;;;5091017;28;19994;-77
2021/08/13 03:39:41;;;;;;;;;;;17.20;99.90;;;;;;5091235;28;19908;-77
2021/08/13 03:42:07;;;;;;;;;;;17.20;99.90;;;;;;5091236;28;20285;-77
2021/08/13 03:44:32;;;;;;;;;;;17.20;99.90;;;;;;5091485;28;19962;-77
2021/08/13 03:46:58;;;;;;;;;;;17.20;99.90;;;;;;5090819;28;19924;-77
2021/08/13 03:49:23;;;;;;;;;;;17.20;99.90;;;;;;5091222;28;19912;-77
2021/08/13 03:51:49;;;;;;;;;;;17.20;99.90;;;;;;5091137;28;19995;-77
2021/08/13 03:54:14;;;;;;;;;;;17.20;99.90;;;;;;5091122;28;19970;-77
2021/08/13 03:56:40;;;;;;;;;;;17.20;99.90;;;;;;5090853;28;20515;-77
2021/08/13 03:59:05;;;;;;;;;;;17.20;99.90;;;;;;5091398;28;19908;-77
2021/08/13 04:01:32;;;;;;;;;;;17.20;99.90;;;;;;5087885;28;19929;-77
2021/08/13 04:03:59;;;;;;;;;;;17.20;99.90;;;;;;5102076;28;19908;-77
2021/08/13 04:06:25;;;;;;;;;;;17.30;99.90;;;;;;5110924;28;20325;-77
2021/08/13 04:08:51;;;;;;;;;;;17.30;99.90;;;;;;5111311;28;19908;-77
2021/08/13 04:11:16;;;;;;;;;;;17.20;99.90;;;;;;5111334;28;20024;-77
2021/08/13 04:13:42;;;;;;;;;;;17.20;99.90;;;;;;5111506;28;20049;-77
2021/08/13 04:16:07;;;;;;;;;;;17.20;99.90;;;;;;5111132;28;19908;-77
2021/08/13 04:18:32;;;;;;;;;;;17.20;99.90;;;;;;5111232;28;19908;-77
2021/08/13 04:20:58;;;;;;;;;;;17.10;99.90;;;;;;5111193;28;19908;-77
2021/08/13 04:23:23;;;;;;;;;;;17.10;99.90;;;;;;5110225;28;19918;-77
2021/08/13 04:25:49;;;;;;;;;;;17.10;99.90;;;;;;5111032;28;19919;-77
2021/08/13 04:28:14;;;;;;;;;;;17.10;99.90;;;;;;5111040;28;20298;-77
2021/08/13 04:30:40;;;;;;;;;;;17.10;99.90;;;;;;5104899;28;19935;-77
2021/08/13 04:33:09;;;;;;;;;;;17.10;99.90;;;;;;5092637;28;19986;-77
2021/08/13 04:35:35;;;;;;;;;;;17.10;99.90;;;;;;5094745;28;20007;-77
2021/08/13 04:38:01;;;;;;;;;;;17.10;99.90;;;;;;5094117;28;19970;-77
2021/08/13 04:40:26;;;;;;;;;;;17.10;99.90;;;;;;5094570;28;19912;-77
2021/08/13 04:42:52;;;;;;;;;;;17.00;99.90;;;;;;5094479;28;19931;-77
2021/08/13 04:45:17;;;;;;;;;;;17.00;99.90;;;;;;5094305;28;20302;-77
2021/08/13 04:47:42;;;;;;;;;;;17.00;99.90;;;;;;5092634;28;20320;-77
2021/08/13 04:50:09;;;;;;;;;;;17.00;99.90;;;;;;5094389;28;19915;-77
2021/08/13 04:52:45;;;;;;;;;;;17.00;99.90;;;;;;5094343;28;19909;-77
2021/08/13 04:55:11;;;;;;;;;;;17.00;99.90;;;;;;5092990;28;20001;-77
2021/08/13 04:57:36;;;;;;;;;;;17.00;99.90;;;;;;5093908;28;19974;-77
2021/08/13 05:00:03;;;;;;;;;;;17.00;99.90;;;;;;5092840;28;19908;-77
2021/08/13 05:02:29;;;;;;;;;;;17.10;99.90;;;;;;5090784;28;19926;-77
2021/08/13 05:05:01;;;;;;;;;;;17.10;99.90;;;;;;5092698;28;20017;-77
2021/08/13 05:07:30;;;;;;;;;;;17.10;99.90;;;;;;5093791;28;19918;-77
2021/08/13 05:09:56;;;;;;;;;;;17.20;99.90;;;;;;5093979;28;20374;-77
2021/08/13 05:12:21;;;;;;;;;;;17.20;99.90;;;;;;5092650;28;19916;-77
2021/08/13 05:14:47;;;;;;;;;;;17.30;99.90;;;;;;5094031;28;19923;-77
2021/08/13 05:17:12;;;;;;;;;;;17.20;99.90;;;;;;5093864;28;20249;-77
2021/08/13 05:19:38;;;;;;;;;;;17.30;99.90;;;;;;5093768;28;20003;-77
2021/08/13 05:22:03;;;;;;;;;;;17.30;99.90;;;;;;5093721;28;19908;-77
2021/08/13 05:24:29;;;;;;;;;;;17.40;99.90;;;;;;5092450;28;19908;-77
2021/08/13 05:26:54;;;;;;;;;;;17.40;99.90;;;;;;5093153;28;19912;-77
2021/08/13 05:29:20;;;;;;;;;;;17.50;99.90;;;;;;5093616;28;20162;-77
2021/08/13 05:31:45;;;;;;;;;;;17.60;99.90;;;;;;5090520;28;19931;-78
2021/08/13 05:34:11;;;;;;;;;;;17.70;99.90;;;;;;5093869;28;19970;-77
2021/08/13 05:36:37;;;;;;;;;;;17.80;99.90;;;;;;5093393;28;19909;-78
2021/08/13 05:39:02;;;;;;;;;;;17.90;99.90;;;;;;5092380;28;19916;-77
2021/08/13 05:41:28;;;;;;;;;;;18.00;99.90;;;;;;5093739;28;19908;-77
2021/08/13 05:43:53;;;;;;;;;;;18.10;99.90;;;;;;5093428;28;19912;-77
2021/08/13 05:46:19;;;;;;;;;;;18.10;99.90;;;;;;5092889;28;19916;-77
2021/08/13 05:48:44;;;;;;;;;;;18.20;99.90;;;;;;5094205;28;20029;-77
2021/08/13 05:51:10;;;;;;;;;;;18.40;99.90;;;;;;5093376;28;19923;-77
2021/08/13 05:53:35;;;;;;;;;;;18.40;99.90;;;;;;5093509;28;19908;-77
2021/08/13 05:56:01;;;;;;;;;;;18.50;99.90;;;;;;5093171;28;20034;-78
2021/08/13 05:58:26;;;;;;;;;;;18.50;99.90;;;;;;5093284;28;19915;-77
2021/08/13 06:00:51;;;;;;;;;;;18.60;99.90;;;;;;5092833;28;19916;-77
2021/08/13 06:03:17;;;;;;;;;;;18.60;99.90;;;;;;5093036;28;19908;-78
2021/08/13 06:05:42;;;;;;;;;;;18.70;99.90;;;;;;5093392;28;19916;-78
2021/08/13 06:08:08;;;;;;;;;;;18.80;99.90;;;;;;5092758;28;20003;-78
2021/08/13 06:10:33;;;;;;;;;;;18.90;99.90;;;;;;5092552;28;20002;-78
2021/08/13 06:12:59;;;;;;;;;;;19.00;99.90;;;;;;5093022;28;19909;-78
2021/08/13 06:15:24;;;;;;;;;;;19.10;99.90;;;;;;5091550;28;19934;-77
2021/08/13 06:17:50;;;;;;;;;;;19.20;99.90;;;;;;5092588;28;19908;-78
2021/08/13 06:20:18;;;;;;;;;;;19.30;99.90;;;;;;5090918;28;19909;-78
2021/08/13 06:22:43;;;;;;;;;;;19.40;99.90;;;;;;5092858;28;20450;-77
2021/08/13 06:25:09;;;;;;;;;;;19.70;99.90;;;;;;5092782;28;19996;-77
2021/08/13 06:27:38;;;;;;;;;;;20.00;99.90;;;;;;5092357;28;19908;-78
2021/08/13 06:30:03;;;;;;;;;;;20.20;99.90;;;;;;5092393;28;20038;-78
2021/08/13 06:32:29;;;;;;;;;;;20.40;99.90;;;;;;5089196;28;20372;-78
2021/08/13 06:34:54;;;;;;;;;;;20.60;99.90;;;;;;5092320;28;20250;-78
2021/08/13 06:37:20;;;;;;;;;;;20.80;99.90;;;;;;5092189;28;19908;-78
2021/08/13 06:39:45;;;;;;;;;;;20.90;99.90;;;;;;5092516;28;19908;-78
2021/08/13 06:42:11;;;;;;;;;;;21.10;99.90;;;;;;5091077;28;19951;-78
2021/08/13 06:44:36;;;;;;;;;;;21.20;99.90;;;;;;5092338;28;19998;-78
2021/08/13 06:47:02;;;;;;;;;;;21.30;99.90;;;;;;5091861;28;20321;-75
2021/08/13 06:49:27;;;;;;;;;;;21.50;99.90;;;;;;5092172;28;19965;-76
2021/08/13 06:51:53;;;;;;;;;;;21.60;99.90;;;;;;5091993;28;19912;-76
2021/08/13 06:54:18;;;;;;;;;;;21.80;99.90;;;;;;5091700;28;19912;-78
2021/08/13 06:56:44;;;;;;;;;;;21.80;99.90;;;;;;5089957;28;19915;-77
2021/08/13 06:59:09;;;;;;;;;;;22.00;99.90;;;;;;5092063;28;19920;-77
2021/08/13 07:01:35;;;;;;;;;;;22.10;99.90;;;;;;5088830;28;19912;-77
2021/08/13 07:04:00;;;;;;;;;;;22.30;99.90;;;;;;5091535;28;19908;-77
2021/08/13 07:06:26;;;;;;;;;;;22.50;99.90;;;;;;5091695;28;20399;-77
2021/08/13 07:08:51;;;;;;;;;;;22.70;99.90;;;;;;5091478;28;19908;-77
2021/08/13 07:11:17;;;;;;;;;;;23.40;99.90;;;;;;5091691;28;19908;-78
2021/08/13 07:13:42;;;;;;;;;;;24.30;99.90;;;;;;5091621;28;19908;-77
2021/08/13 07:16:08;;;;;;;;;;;25.10;99.90;;;;;;5091435;28;20037;-78
2021/08/13 07:18:34;;;;;;;;;;;25.20;99.90;;;;;;5091875;28;19912;-78
2021/08/13 07:21:00;;;;;;;;;;;24.80;99.90;;;;;;5091457;28;19908;-77
2021/08/13 07:23:25;;;;;;;;;;;24.60;99.90;;;;;;5091517;28;20373;-77
2021/08/13 07:25:51;;;;;;;;;;;24.40;99.90;;;;;;5091515;28;19912;-77
2021/08/13 07:28:16;;;;;;;;;;;25.10;99.90;;;;;;5090738;28;20287;-78
2021/08/13 07:30:42;;;;;;;;;;;26.30;99.90;;;;;;5088147;28;19912;-78
2021/08/13 07:33:07;;;;;;;;;;;27.10;99.90;;;;;;5099471;28;19954;-77
2021/08/13 07:35:33;;;;;;;;;;;28.00;99.90;;;;;;5091807;28;19908;-77
2021/08/13 07:37:58;;;;;;;;;;;28.70;99.90;;;;;;5089858;28;19908;-78
2021/08/13 07:40:24;;;;;;;;;;;29.10;99.90;;;;;;5091139;28;19912;-78
2021/08/13 07:42:50;;;;;;;;;;;29.50;99.90;;;;;;5091459;28;19916;-77
2021/08/13 07:45:15;;;;;;;;;;;29.90;99.90;;;;;;5091360;28;20281;-78
2021/08/13 07:47:41;;;;;;;;;;;30.10;99.50;;;;;;5090728;28;19908;-78
2021/08/13 07:50:07;;;;;;;;;;;29.90;99.00;;;;;;5091238;28;20400;-77
2021/08/13 07:52:33;;;;;;;;;;;29.90;99.00;;;;;;5091363;28;19909;-77
2021/08/13 07:54:58;;;;;;;;;;;30.20;99.10;;;;;;5089817;28;19915;-78
2021/08/13 07:57:25;;;;;;;;;;;30.50;98.20;;;;;;5091036;28;19920;-78
2021/08/13 07:59:50;;;;;;;;;;;30.70;98.60;;;;;;5091966;28;19985;-77
2021/08/13 08:02:16;;;;;;;;;;;30.90;97.10;;;;;;5087865;28;19946;-78
2021/08/13 08:04:41;;;;;;;;;;;31.10;96.80;;;;;;5091180;28;19915;-78
2021/08/13 08:07:07;;;;;;;;;;;31.10;96.90;;;;;;5091236;28;19916;-78
2021/08/13 08:09:32;;;;;;;;;;;31.20;97.30;;;;;;5095471;28;19969;-79
2021/08/13 08:11:58;;;;;;;;;;;31.30;96.90;;;;;;5095240;28;20591;-78
2021/08/13 08:14:23;;;;;;;;;;;31.60;97.20;;;;;;5095387;28;19948;-79
2021/08/13 08:16:49;;;;;;;;;;;31.80;96.70;;;;;;5094762;28;20272;-78
2021/08/13 08:19:15;;;;;;;;;;;31.80;95.50;;;;;;5095327;28;19908;-78
2021/08/13 08:21:42;;;;;;;;;;;31.70;96.40;;;;;;5095469;28;19950;-78
2021/08/13 08:24:08;;;;;;;;;;;32.00;95.80;;;;;;5093909;28;19949;-78
2021/08/13 08:26:33;;;;;;;;;;;32.10;95.30;;;;;;5094614;28;19974;-78
2021/08/13 08:28:59;;;;;;;;;;;32.00;96.70;;;;;;5095126;28;19908;-78
2021/08/13 08:31:24;;;;;;;;;;;31.60;95.90;;;;;;5094676;28;20312;-78
2021/08/13 08:33:50;;;;;;;;;;;31.80;97.40;;;;;;5113432;28;20364;-79
2021/08/13 08:36:16;;;;;;;;;;;31.90;96.90;;;;;;5113650;28;19908;-77
2021/08/13 08:38:41;;;;;;;;;;;32.00;95.70;;;;;;5114101;28;20384;-78
2021/08/13 08:41:08;;;;;;;;;;;32.00;95.70;;;;;;5115112;28;19907;-78
2021/08/13 08:43:34;;;;;;;;;;;32.00;96.10;;;;;;5113929;28;20299;-77
2021/08/13 08:46:00;;;;;;;;;;;32.10;95.40;;;;;;5114816;28;19920;-78
2021/08/13 08:48:32;;;;;;;;;;;32.00;95.50;;;;;;5114855;28;20405;-77
2021/08/13 08:50:58;;;;;;;;;;;31.80;96.00;;;;;;5114993;28;20012;-78
2021/08/13 08:53:24;;;;;;;;;;;31.80;97.00;;;;;;5114967;28;20364;-78
2021/08/13 08:55:52;;;;;;;;;;;32.10;96.30;;;;;;5114800;28;19908;-78
2021/08/13 08:58:21;;;;;;;;;;;32.00;96.30;;;;;;5114584;28;20017;-78
2021/08/13 09:00:47;;;;;;;;;;;31.70;96.00;;;;;;5109020;28;19908;-78
2021/08/13 09:03:14;;;;;;;;;;;31.70;97.40;;;;;;5113367;28;19953;-78
2021/08/13 09:05:39;;;;;;;;;;;32.10;96.30;;;;;;5112694;28;19964;-78
2021/08/13 09:08:05;;;;;;;;;;;32.40;96.40;;;;;;5112662;28;19912;-79
2021/08/13 09:10:30;;;;;;;;;;;32.70;95.60;;;;;;5113123;28;19935;-79
2021/08/13 09:13:02;;;;;;;;;;;33.00;94.00;;;;;;5114149;28;19953;-79
2021/08/13 09:15:31;;;;;;;;;;;33.20;94.60;;;;;;5114431;28;19912;-79
2021/08/13 09:18:16;;;;;;;;;;;33.30;95.30;;;;;;5113558;28;19907;-79
2021/08/13 09:20:44;;;;;;;;;;;33.20;93.90;;;;;;5114360;28;20372;-78
2021/08/13 09:23:10;;;;;;;;;;;33.20;94.40;;;;;;5114432;28;19947;-78
2021/08/13 09:25:36;;;;;;;;;;;33.50;93.90;;;;;;5113915;28;19958;-78
2021/08/13 09:28:01;;;;;;;;;;;33.80;94.70;;;;;;5113824;28;19907;-79
2021/08/13 09:30:27;;;;;;;;;;;33.80;92.90;;;;;;5111418;28;19914;-78
2021/08/13 09:32:56;;;;;;;;;;;33.80;93.50;;;;;;5083194;28;19916;-78
2021/08/13 09:35:33;;;;;;;;;;;34.10;93.20;;;;;;5093551;28;19977;-79
2021/08/13 09:38:00;;;;;;;;;;;34.30;92.90;;;;;;5093085;28;20006;-79
2021/08/13 09:40:26;;;;;;;;;;;34.40;94.60;;;;;;5093362;28;19916;-79
2021/08/13 09:43:00;;;;;;;;;;;34.50;92.30;;;;;;5093551;28;19953;-79
2021/08/13 09:45:25;;;;;;;;;;;34.60;91.80;;;;;;5093364;28;19923;-78
2021/08/13 09:47:51;;;;;;;;;;;34.70;93.70;;;;;;5092832;28;20297;-78
2021/08/13 09:50:20;;;;;;;;;;;34.60;92.80;;;;;;5093357;28;20280;-79
2021/08/13 09:53:05;;;;;;;;;;;34.60;92.50;;;;;;5091967;28;19909;-79
2021/08/13 09:55:31;;;;;;;;;;;34.60;93.10;;;;;;5093319;28;19935;-78
2021/08/13 09:57:56;;;;;;;;;;;34.80;93.00;;;;;;5092953;28;20368;-79
2021/08/13 10:00:21;;;;;;;;;;;34.80;91.00;;;;;;5093310;28;20262;-79
2021/08/13 10:02:47;;;;;;;;;;;34.60;91.00;;;;;;5084966;28;19908;-78
2021/08/13 10:05:19;;;;;;;;;;;34.50;92.20;;;;;;5093114;28;19908;-78
2021/08/13 10:07:47;;;;;;;;;;;34.50;92.00;;;;;;5092892;28;19916;-79
2021/08/13 10:10:13;;;;;;;;;;;34.60;92.50;;;;;;5093248;28;19915;-79
2021/08/13 10:12:45;;;;;;;;;;;34.70;91.50;;;;;;5093218;28;19908;-79
2021/08/13 10:15:11;;;;;;;;;;;34.70;92.00;;;;;;5091665;28;19995;-79
2021/08/13 10:17:37;;;;;;;;;;;35.00;93.70;;;;;;5091181;28;19912;-79
2021/08/13 10:20:02;;;;;;;;;;;35.40;92.50;;;;;;5092795;28;19909;-79
2021/08/13 10:22:28;;;;;;;;;;;35.60;92.00;;;;;;5087001;28;19914;-79
2021/08/13 10:24:54;;;;;;;;;;;35.80;91.10;;;;;;5090571;28;19958;-79
2021/08/13 10:27:20;;;;;;;;;;;35.90;91.00;;;;;;5092569;28;19923;-79
2021/08/13 10:29:47;;;;;;;;;;;35.50;90.10;;;;;;5091928;28;20307;-79
2021/08/13 10:32:17;;;;;;;;;;;35.10;91.80;;;;;;5092498;28;19998;-80
2021/08/13 10:34:43;;;;;;;;;;;35.10;91.90;;;;;;5094115;28;20300;-79
2021/08/13 10:37:11;;;;;;;;;;;35.10;90.80;;;;;;5092327;28;19908;-79
2021/08/13 10:39:38;;;;;;;;;;;35.30;91.80;;;;;;5092659;28;19908;-78
2021/08/13 10:42:04;;;;;;;;;;;35.30;90.10;;;;;;5092369;28;19912;-78
2021/08/13 10:44:35;;;;;;;;;;;35.60;89.80;;;;;;5092369;28;19908;-78
2021/08/13 10:47:01;;;;;;;;;;;35.20;89.60;;;;;;5091885;28;19920;-79
2021/08/13 10:49:27;;;;;;;;;;;35.40;91.20;;;;;;5092254;28;19908;-79
2021/08/13 10:52:00;;;;;;;;;;;35.30;88.50;;;;;;5091963;28;20262;-79
2021/08/13 10:54:37;;;;;;;;;;;35.00;90.00;;;;;;5086400;28;19913;-79
2021/08/13 10:57:03;;;;;;;;;;;34.70;89.30;;;;;;5091843;28;19912;-78
2021/08/13 10:59:41;;;;;;;;;;;34.70;87.70;;;;;;5092001;28;19912;-79
2021/08/13 11:02:10;;;;;;;;;;;34.30;88.00;;;;;;5092213;28;20299;-78
2021/08/13 11:04:43;;;;;;;;;;;34.10;88.50;;;;;;5091990;28;19908;-79
2021/08/13 11:07:10;;;;;;;;;;;34.10;90.10;;;;;;5091677;28;20265;-79
2021/08/13 11:09:36;;;;;;;;;;;34.10;89.40;;;;;;5091985;28;19908;-79
2021/08/13 11:12:10;;;;;;;;;;;34.30;90.20;;;;;;5092153;28;19962;-79
2021/08/13 11:14:48;;;;;;;;;;;34.50;90.00;;;;;;5092297;28;19914;-79
2021/08/13 11:17:31;;;;;;;;;;;35.00;87.00;;;;;;5091554;28;19915;-79
2021/08/13 11:19:58;;;;;;;;;;;35.20;85.90;;;;;;5092014;28;19999;-79
2021/08/13 11:22:28;;;;;;;;;;;35.70;90.00;;;;;;5087390;28;19916;-79
2021/08/13 11:24:54;;;;;;;;;;;35.40;84.60;;;;;;5089869;28;19965;-79
2021/08/13 11:27:19;;;;;;;;;;;35.20;88.90;;;;;;5089979;28;19912;-79
2021/08/13 11:29:45;;;;;;;;;;;35.50;84.40;;;;;;5091806;28;19916;-79
2021/08/13 11:32:13;;;;;;;;;;;35.40;86.70;;;;;;5086879;28;19934;-79
2021/08/13 11:34:49;;;;;;;;;;;34.70;86.00;;;;;;5111524;28;19911;-79
2021/08/13 11:37:27;;;;;;;;;;;33.40;87.10;;;;;;5111363;28;20011;-78
2021/08/13 11:39:52;;;;;;;;;;;32.90;90.90;;;;;;5112055;28;19908;-78
2021/08/13 11:42:20;;;;;;;;;;;32.60;91.00;;;;;;5111506;28;19915;-79
2021/08/13 11:44:47;;;;;;;;;;;32.50;91.00;;;;;;5111684;28;19912;-79
2021/08/13 11:47:15;;;;;;;;;;;32.60;92.00;;;;;;5109740;28;19915;-79
2021/08/13 11:49:41;;;;;;;;;;;32.40;89.90;;;;;;5110441;28;19908;-79
2021/08/13 11:52:08;;;;;;;;;;;31.70;90.70;;;;;;5111635;28;19915;-78
2021/08/13 11:54:35;;;;;;;;;;;31.20;92.00;;;;;;5111944;28;19912;-78
2021/08/13 11:57:11;;;;;;;;;;;31.20;92.40;;;;;;5111587;28;19907;-79
2021/08/13 11:59:36;;;;;;;;;;;31.60;90.70;;;;;;5110135;28;20364;-79
2021/08/13 12:02:02;;;;;;;;;;;32.40;93.30;;;;;;5091714;28;19993;-79
2021/08/13 12:04:27;;;;;;;;;;;32.50;90.60;;;;;;5090970;28;19908;-78
2021/08/13 12:06:58;;;;;;;;;;;32.10;91.20;;;;;;5090644;28;19916;-78
2021/08/13 12:09:30;;;;;;;;;;;32.50;91.10;;;;;;5091565;28;19938;-78
2021/08/13 12:11:56;;;;;;;;;;;32.40;91.30;;;;;;5091404;28;19908;-79
2021/08/13 12:14:22;;;;;;;;;;;32.10;91.30;;;;;;5091061;28;19908;-79
2021/08/13 12:16:55;;;;;;;;;;;31.90;91.80;;;;;;5090937;28;20432;-79
2021/08/13 12:19:21;;;;;;;;;;;31.60;92.30;;;;;;5091425;28;20006;-78
2021/08/13 12:21:53;;;;;;;;;;;31.50;92.80;;;;;;5090886;28;20295;-79
2021/08/13 12:24:37;;;;;;;;;;;31.50;92.60;;;;;;5091184;28;19916;-78
2021/08/13 12:27:06;;;;;;;;;;;31.70;93.00;;;;;;5090618;28;20376;-79
2021/08/13 12:29:32;;;;;;;;;;;31.40;92.50;;;;;;5091032;28;19908;-78
2021/08/13 12:32:00;;;;;;;;;;;31.10;92.60;;;;;;5081970;28;19909;-79
2021/08/13 12:34:26;;;;;;;;;;;30.70;93.50;;;;;;5090895;28;19954;-79
2021/08/13 12:37:07;;;;;;;;;;;30.50;93.30;;;;;;5090360;28;19915;-79
2021/08/13 12:39:33;;;;;;;;;;;30.80;93.10;;;;;;5090759;28;19908;-79
2021/08/13 12:41:59;;;;;;;;;;;31.10;94.00;;;;;;5090820;28;20565;-78
2021/08/13 12:44:25;;;;;;;;;;;31.00;91.70;;;;;;5090960;28;20110;-79
2021/08/13 12:46:51;;;;;;;;;;;30.80;92.10;;;;;;5090372;28;19923;-78
2021/08/13 12:49:19;;;;;;;;;;;30.50;93.40;;;;;;5090894;28;19915;-79
2021/08/13 12:51:45;;;;;;;;;;;30.20;92.30;;;;;;5090571;28;19912;-79
2021/08/13 12:54:29;;;;;;;;;;;29.80;93.00;;;;;;5092843;28;19916;-79
2021/08/13 12:56:58;;;;;;;;;;;29.80;93.50;;;;;;5094149;28;19919;-79
2021/08/13 12:59:30;;;;;;;;;;;30.20;92.40;;;;;;5094440;28;19908;-79
2021/08/13 13:01:55;;;;;;;;;;;30.50;93.00;;;;;;5085150;28;19908;-79
2021/08/13 13:04:21;;;;;;;;;;;30.60;92.30;;;;;;5094055;28;20122;-79
2021/08/13 13:06:50;;;;;;;;;;;30.60;92.60;;;;;;5092347;28;19912;-79
2021/08/13 13:09:27;;;;;;;;;;;30.70;94.80;;;;;;5092728;28;20007;-78
2021/08/13 13:12:10;;;;;;;;;;;30.50;93.10;;;;;;5092759;28;19908;-79
2021/08/13 13:14:36;;;;;;;;;;;30.30;92.60;;;;;;5092689;28;19948;-79
2021/08/13 13:17:02;;;;;;;;;;;30.10;93.50;;;;;;5092279;28;20419;-79
2021/08/13 13:19:27;;;;;;;;;;;30.00;94.50;;;;;;5092868;28;20006;-79
2021/08/13 13:22:12;;;;;;;;;;;30.00;94.20;;;;;;5094085;28;19989;-79
2021/08/13 13:24:38;;;;;;;;;;;30.20;95.70;;;;;;5094183;28;19908;-79
2021/08/13 13:27:04;;;;;;;;;;;30.40;94.50;;;;;;5093429;28;20007;-79
2021/08/13 13:29:37;;;;;;;;;;;30.50;94.20;;;;;;5093742;28;19912;-79
2021/08/13 13:32:16;;;;;;;;;;;30.60;91.90;;;;;;5086498;28;20335;-80
2021/08/13 13:34:56;;;;;;;;;;;30.60;93.50;;;;;;5093406;28;19934;-79
2021/08/13 13:37:21;;;;;;;;;;;30.30;94.00;;;;;;5093356;28;19908;-79
2021/08/13 13:39:48;;;;;;;;;;;30.00;94.00;;;;;;5092095;28;19914;-79
2021/08/13 13:42:14;;;;;;;;;;;29.70;95.10;;;;;;5093733;28;19912;-79
2021/08/13 13:44:40;;;;;;;;;;;29.70;94.90;;;;;;5093578;28;19908;-79
2021/08/13 13:47:05;;;;;;;;;;;29.80;94.30;;;;;;5091866;28;19998;-78
2021/08/13 13:49:31;;;;;;;;;;;29.60;94.20;;;;;;5091888;28;19908;-79
2021/08/13 13:51:56;;;;;;;;;;;29.70;96.30;;;;;;5093215;28;20424;-79
2021/08/13 13:54:23;;;;;;;;;;;29.60;95.40;;;;;;5092979;28;19908;-79
2021/08/13 13:56:49;;;;;;;;;;;29.60;94.90;;;;;;5092837;28;19908;-78
2021/08/13 13:59:15;;;;;;;;;;;29.60;95.30;;;;;;5091992;28;19912;-78
2021/08/13 14:01:40;;;;;;;;;;;29.60;94.30;;;;;;5084725;28;19916;-78
2021/08/13 14:04:06;;;;;;;;;;;29.40;95.10;;;;;;5103730;28;19908;-79
2021/08/13 14:06:31;;;;;;;;;;;29.50;94.80;;;;;;5113022;28;19965;-79
2021/08/13 14:08:57;;;;;;;;;;;29.80;94.20;;;;;;5114185;28;19908;-79
2021/08/13 14:11:22;;;;;;;;;;;30.30;93.50;;;;;;5115769;28;19980;-79
2021/08/13 14:13:48;;;;;;;;;;;30.90;95.70;;;;;;5116340;28;19999;-79
2021/08/13 14:16:13;;;;;;;;;;;31.30;91.20;;;;;;5114190;28;20159;-79